sensor_id;sensor_type;location;lat;lon;timestamp;P1;durP1;ratioP1;P2;durP2;ratioP2
44110;SDS011;29774;52.664;5.074;2022-12-10T00:00:22;29.02;;;18.15;;
44110;SDS011;29774;52.664;5.074;2022-12-10T00:02:47;30.75;;;18.42;;
44110;SDS011;29774;52.664;5.074;2022-12-10T00:05:13;29.08;;;17.05;;
44110;SDS011;29774;52.664;5.074;2022-12-10T00:07:39;29.45;;;16.70;;
44110;SDS011;29774;52.664;5.074;2022-12-10T00:10:04;28.20;;;16.40;;
44110;SDS011;29774;52.664;5.074;2022-12-10T00:12:30;27.45;;;15.63;;
44110;SDS011;29774;52.664;5.074;2022-12-10T00:14:56;31.30;;;16.27;;
44110;SDS011;29774;52.664;5.074;2022-12-10T00:17:21;31.75;;;16.75;;
44110;SDS011;29774;52.664;5.074;2022-12-10T00:19:47;32.78;;;15.38;;
44110;SDS011;29774;52.664;5.074;2022-12-10T00:22:13;31.10;;;15.00;;
44110;SDS011;29774;52.664;5.074;2022-12-10T00:24:38;33.45;;;15.15;;
44110;SDS011;29774;52.664;5.074;2022-12-10T00:27:04;37.30;;;15.07;;
44110;SDS011;29774;52.664;5.074;2022-12-10T00:29:29;29.65;;;13.63;;
44110;SDS011;29774;52.664;5.074;2022-12-10T00:31:55;35.88;;;13.38;;
44110;SDS011;29774;52.664;5.074;2022-12-10T00:34:20;25.88;;;13.15;;
44110;SDS011;29774;52.664;5.074;2022-12-10T00:36:46;26.25;;;12.82;;
44110;SDS011;29774;52.664;5.074;2022-12-10T00:39:15;23.50;;;12.85;;
44110;SDS011;29774;52.664;5.074;2022-12-10T00:41:43;21.90;;;10.95;;
44110;SDS011;29774;52.664;5.074;2022-12-10T00:44:09;30.50;;;12.77;;
44110;SDS011;29774;52.664;5.074;2022-12-10T00:46:35;36.33;;;12.45;;
44110;SDS011;29774;52.664;5.074;2022-12-10T00:49:01;26.63;;;11.38;;
44110;SDS011;29774;52.664;5.074;2022-12-10T00:51:28;24.50;;;11.90;;
44110;SDS011;29774;52.664;5.074;2022-12-10T00:53:54;23.73;;;11.35;;
44110;SDS011;29774;52.664;5.074;2022-12-10T00:56:21;37.45;;;13.07;;
44110;SDS011;29774;52.664;5.074;2022-12-10T00:58:52;27.58;;;11.65;;
44110;SDS011;29774;52.664;5.074;2022-12-10T01:04:03;32.42;;;12.50;;
44110;SDS011;29774;52.664;5.074;2022-12-10T01:06:35;40.20;;;13.82;;
44110;SDS011;29774;52.664;5.074;2022-12-10T01:09:05;31.92;;;13.93;;
44110;SDS011;29774;52.664;5.074;2022-12-10T01:11:33;29.05;;;12.93;;
44110;SDS011;29774;52.664;5.074;2022-12-10T01:14:02;34.25;;;13.23;;
44110;SDS011;29774;52.664;5.074;2022-12-10T01:16:28;31.75;;;13.35;;
44110;SDS011;29774;52.664;5.074;2022-12-10T01:18:57;40.85;;;13.63;;
44110;SDS011;29774;52.664;5.074;2022-12-10T01:21:24;29.48;;;13.15;;
44110;SDS011;29774;52.664;5.074;2022-12-10T01:23:51;24.65;;;11.70;;
44110;SDS011;29774;52.664;5.074;2022-12-10T01:26:25;34.35;;;12.55;;
44110;SDS011;29774;52.664;5.074;2022-12-10T01:28:52;32.05;;;12.55;;
44110;SDS011;29774;52.664;5.074;2022-12-10T01:31:20;32.00;;;11.73;;
44110;SDS011;29774;52.664;5.074;2022-12-10T01:33:47;27.75;;;11.25;;
44110;SDS011;29774;52.664;5.074;2022-12-10T01:36:14;43.90;;;11.90;;
44110;SDS011;29774;52.664;5.074;2022-12-10T01:38:45;29.60;;;11.60;;
44110;SDS011;29774;52.664;5.074;2022-12-10T01:41:15;41.42;;;11.48;;
44110;SDS011;29774;52.664;5.074;2022-12-10T01:43:58;33.92;;;11.43;;
44110;SDS011;29774;52.664;5.074;2022-12-10T01:46:26;31.23;;;11.23;;
44110;SDS011;29774;52.664;5.074;2022-12-10T01:48:54;22.48;;;10.45;;
44110;SDS011;29774;52.664;5.074;2022-12-10T01:51:21;30.85;;;11.35;;
44110;SDS011;29774;52.664;5.074;2022-12-10T01:53:47;28.63;;;10.55;;
44110;SDS011;29774;52.664;5.074;2022-12-10T01:56:15;22.45;;;11.07;;
44110;SDS011;29774;52.664;5.074;2022-12-10T01:58:41;26.40;;;10.70;;
44110;SDS011;29774;52.664;5.074;2022-12-10T02:01:10;26.27;;;10.45;;
44110;SDS011;29774;52.664;5.074;2022-12-10T02:12:18;25.45;;;10.32;;
44110;SDS011;29774;52.664;5.074;2022-12-10T02:15:13;37.67;;;9.90;;
44110;SDS011;29774;52.664;5.074;2022-12-10T02:17:55;25.92;;;9.30;;
44110;SDS011;29774;52.664;5.074;2022-12-10T02:20:32;29.35;;;9.88;;
44110;SDS011;29774;52.664;5.074;2022-12-10T02:23:04;24.95;;;9.73;;
44110;SDS011;29774;52.664;5.074;2022-12-10T02:25:43;25.90;;;9.90;;
44110;SDS011;29774;52.664;5.074;2022-12-10T02:30:56;36.78;;;10.73;;
44110;SDS011;29774;52.664;5.074;2022-12-10T02:33:22;33.67;;;12.07;;
44110;SDS011;29774;52.664;5.074;2022-12-10T02:35:50;38.53;;;11.15;;
44110;SDS011;29774;52.664;5.074;2022-12-10T02:38:20;21.80;;;9.98;;
44110;SDS011;29774;52.664;5.074;2022-12-10T02:40:52;42.38;;;14.10;;
44110;SDS011;29774;52.664;5.074;2022-12-10T02:43:22;41.45;;;12.52;;
44110;SDS011;29774;52.664;5.074;2022-12-10T02:45:49;63.00;;;15.50;;
44110;SDS011;29774;52.664;5.074;2022-12-10T02:48:16;31.42;;;11.25;;
44110;SDS011;29774;52.664;5.074;2022-12-10T02:50:43;23.13;;;9.45;;
44110;SDS011;29774;52.664;5.074;2022-12-10T02:53:09;35.33;;;12.30;;
44110;SDS011;29774;52.664;5.074;2022-12-10T02:56:23;48.70;;;14.80;;
44110;SDS011;29774;52.664;5.074;2022-12-10T02:58:36;47.17;;;13.20;;
44110;SDS011;29774;52.664;5.074;2022-12-10T03:01:30;41.53;;;13.88;;
44110;SDS011;29774;52.664;5.074;2022-12-10T03:04:30;41.08;;;13.75;;
44110;SDS011;29774;52.664;5.074;2022-12-10T03:07:01;22.20;;;11.10;;
44110;SDS011;29774;52.664;5.074;2022-12-10T03:09:34;23.90;;;12.93;;
44110;SDS011;29774;52.664;5.074;2022-12-10T03:12:25;37.35;;;12.50;;
44110;SDS011;29774;52.664;5.074;2022-12-10T03:15:06;37.90;;;13.85;;
44110;SDS011;29774;52.664;5.074;2022-12-10T03:17:35;40.55;;;14.73;;
44110;SDS011;29774;52.664;5.074;2022-12-10T03:20:03;51.10;;;14.95;;
44110;SDS011;29774;52.664;5.074;2022-12-10T03:22:33;51.78;;;14.40;;
44110;SDS011;29774;52.664;5.074;2022-12-10T03:24:59;40.75;;;11.98;;
44110;SDS011;29774;52.664;5.074;2022-12-10T03:27:26;32.88;;;13.13;;
44110;SDS011;29774;52.664;5.074;2022-12-10T03:29:55;50.90;;;12.80;;
44110;SDS011;29774;52.664;5.074;2022-12-10T03:32:24;51.63;;;12.77;;
44110;SDS011;29774;52.664;5.074;2022-12-10T03:34:53;34.22;;;12.35;;
44110;SDS011;29774;52.664;5.074;2022-12-10T03:37:21;37.42;;;12.38;;
44110;SDS011;29774;52.664;5.074;2022-12-10T03:39:48;41.53;;;14.13;;
44110;SDS011;29774;52.664;5.074;2022-12-10T03:42:14;33.70;;;13.57;;
44110;SDS011;29774;52.664;5.074;2022-12-10T03:44:40;38.65;;;12.93;;
44110;SDS011;29774;52.664;5.074;2022-12-10T03:47:07;29.52;;;13.88;;
44110;SDS011;29774;52.664;5.074;2022-12-10T03:49:35;36.85;;;13.27;;
44110;SDS011;29774;52.664;5.074;2022-12-10T03:52:00;32.05;;;13.10;;
44110;SDS011;29774;52.664;5.074;2022-12-10T03:54:26;39.92;;;14.20;;
44110;SDS011;29774;52.664;5.074;2022-12-10T03:56:52;44.25;;;12.73;;
44110;SDS011;29774;52.664;5.074;2022-12-10T03:59:17;33.65;;;12.70;;
44110;SDS011;29774;52.664;5.074;2022-12-10T04:01:43;30.90;;;11.90;;
44110;SDS011;29774;52.664;5.074;2022-12-10T04:04:09;35.53;;;11.63;;
44110;SDS011;29774;52.664;5.074;2022-12-10T04:06:36;26.60;;;12.02;;
44110;SDS011;29774;52.664;5.074;2022-12-10T04:09:03;30.88;;;11.63;;
44110;SDS011;29774;52.664;5.074;2022-12-10T04:11:28;34.83;;;12.48;;
44110;SDS011;29774;52.664;5.074;2022-12-10T04:13:54;25.80;;;12.10;;
44110;SDS011;29774;52.664;5.074;2022-12-10T04:16:39;32.70;;;12.02;;
44110;SDS011;29774;52.664;5.074;2022-12-10T04:19:06;37.67;;;12.20;;
44110;SDS011;29774;52.664;5.074;2022-12-10T04:21:34;44.28;;;12.88;;
44110;SDS011;29774;52.664;5.074;2022-12-10T04:24:22;26.15;;;12.23;;
44110;SDS011;29774;52.664;5.074;2022-12-10T04:27:12;34.35;;;11.35;;
44110;SDS011;29774;52.664;5.074;2022-12-10T04:29:58;31.10;;;11.75;;
44110;SDS011;29774;52.664;5.074;2022-12-10T04:32:26;29.20;;;10.98;;
44110;SDS011;29774;52.664;5.074;2022-12-10T04:34:53;31.77;;;11.32;;
44110;SDS011;29774;52.664;5.074;2022-12-10T04:37:19;32.25;;;10.80;;
44110;SDS011;29774;52.664;5.074;2022-12-10T04:39:45;46.35;;;11.63;;
44110;SDS011;29774;52.664;5.074;2022-12-10T04:42:11;48.28;;;11.20;;
44110;SDS011;29774;52.664;5.074;2022-12-10T04:44:38;56.00;;;12.93;;
44110;SDS011;29774;52.664;5.074;2022-12-10T04:47:04;39.17;;;12.07;;
44110;SDS011;29774;52.664;5.074;2022-12-10T04:49:31;37.35;;;11.73;;
44110;SDS011;29774;52.664;5.074;2022-12-10T04:51:57;36.67;;;12.07;;
44110;SDS011;29774;52.664;5.074;2022-12-10T04:54:23;43.60;;;12.93;;
44110;SDS011;29774;52.664;5.074;2022-12-10T04:56:49;27.73;;;10.90;;
44110;SDS011;29774;52.664;5.074;2022-12-10T04:59:15;45.85;;;13.52;;
44110;SDS011;29774;52.664;5.074;2022-12-10T05:01:41;43.20;;;13.45;;
44110;SDS011;29774;52.664;5.074;2022-12-10T05:04:07;54.92;;;14.55;;
44110;SDS011;29774;52.664;5.074;2022-12-10T05:06:35;40.88;;;14.68;;
44110;SDS011;29774;52.664;5.074;2022-12-10T05:09:01;35.72;;;14.95;;
44110;SDS011;29774;52.664;5.074;2022-12-10T05:11:28;39.25;;;15.32;;
44110;SDS011;29774;52.664;5.074;2022-12-10T05:13:56;52.20;;;14.73;;
44110;SDS011;29774;52.664;5.074;2022-12-10T05:16:23;60.17;;;17.27;;
44110;SDS011;29774;52.664;5.074;2022-12-10T05:18:50;51.67;;;17.08;;
44110;SDS011;29774;52.664;5.074;2022-12-10T05:21:18;46.55;;;16.83;;
44110;SDS011;29774;52.664;5.074;2022-12-10T05:23:46;60.67;;;17.70;;
44110;SDS011;29774;52.664;5.074;2022-12-10T05:26:20;57.65;;;16.33;;
44110;SDS011;29774;52.664;5.074;2022-12-10T05:28:52;59.15;;;17.17;;
44110;SDS011;29774;52.664;5.074;2022-12-10T05:31:27;49.00;;;18.05;;
44110;SDS011;29774;52.664;5.074;2022-12-10T05:33:55;30.92;;;12.60;;
44110;SDS011;29774;52.664;5.074;2022-12-10T05:36:25;32.08;;;13.73;;
44110;SDS011;29774;52.664;5.074;2022-12-10T05:38:53;25.60;;;11.80;;
44110;SDS011;29774;52.664;5.074;2022-12-10T05:41:21;27.75;;;12.50;;
44110;SDS011;29774;52.664;5.074;2022-12-10T05:43:49;41.80;;;16.60;;
44110;SDS011;29774;52.664;5.074;2022-12-10T05:46:19;47.47;;;14.10;;
44110;SDS011;29774;52.664;5.074;2022-12-10T05:48:47;36.90;;;14.10;;
44110;SDS011;29774;52.664;5.074;2022-12-10T05:51:18;45.88;;;15.48;;
44110;SDS011;29774;52.664;5.074;2022-12-10T05:53:46;32.53;;;14.15;;
44110;SDS011;29774;52.664;5.074;2022-12-10T05:56:12;50.35;;;14.38;;
44110;SDS011;29774;52.664;5.074;2022-12-10T05:58:41;32.70;;;13.73;;
44110;SDS011;29774;52.664;5.074;2022-12-10T06:01:09;30.10;;;13.05;;
44110;SDS011;29774;52.664;5.074;2022-12-10T06:03:39;26.48;;;12.55;;
44110;SDS011;29774;52.664;5.074;2022-12-10T06:06:06;30.70;;;13.93;;
44110;SDS011;29774;52.664;5.074;2022-12-10T06:08:33;29.73;;;15.40;;
44110;SDS011;29774;52.664;5.074;2022-12-10T06:11:06;43.10;;;15.52;;
44110;SDS011;29774;52.664;5.074;2022-12-10T06:13:34;33.60;;;14.57;;
44110;SDS011;29774;52.664;5.074;2022-12-10T06:16:03;29.55;;;15.23;;
44110;SDS011;29774;52.664;5.074;2022-12-10T06:18:34;29.38;;;15.30;;
44110;SDS011;29774;52.664;5.074;2022-12-10T06:21:02;27.92;;;15.05;;
44110;SDS011;29774;52.664;5.074;2022-12-10T06:23:33;27.75;;;14.00;;
44110;SDS011;29774;52.664;5.074;2022-12-10T06:26:02;36.05;;;14.52;;
44110;SDS011;29774;52.664;5.074;2022-12-10T06:28:36;33.55;;;14.13;;
44110;SDS011;29774;52.664;5.074;2022-12-10T06:31:02;23.60;;;13.77;;
44110;SDS011;29774;52.664;5.074;2022-12-10T06:33:28;29.10;;;13.23;;
44110;SDS011;29774;52.664;5.074;2022-12-10T06:35:54;32.85;;;13.32;;
44110;SDS011;29774;52.664;5.074;2022-12-10T06:38:20;26.83;;;13.48;;
44110;SDS011;29774;52.664;5.074;2022-12-10T06:40:45;24.85;;;13.82;;
44110;SDS011;29774;52.664;5.074;2022-12-10T06:43:11;26.73;;;14.15;;
44110;SDS011;29774;52.664;5.074;2022-12-10T06:45:40;26.88;;;14.45;;
44110;SDS011;29774;52.664;5.074;2022-12-10T06:48:07;30.98;;;13.90;;
44110;SDS011;29774;52.664;5.074;2022-12-10T06:50:33;31.15;;;14.45;;
44110;SDS011;29774;52.664;5.074;2022-12-10T06:52:59;40.88;;;15.88;;
44110;SDS011;29774;52.664;5.074;2022-12-10T06:55:24;42.28;;;14.80;;
44110;SDS011;29774;52.664;5.074;2022-12-10T06:57:51;33.33;;;14.93;;
44110;SDS011;29774;52.664;5.074;2022-12-10T07:00:17;33.03;;;15.10;;
44110;SDS011;29774;52.664;5.074;2022-12-10T07:02:43;27.48;;;13.55;;
44110;SDS011;29774;52.664;5.074;2022-12-10T07:05:08;38.67;;;13.48;;
44110;SDS011;29774;52.664;5.074;2022-12-10T07:07:34;29.00;;;13.57;;
44110;SDS011;29774;52.664;5.074;2022-12-10T07:10:01;25.30;;;13.55;;
44110;SDS011;29774;52.664;5.074;2022-12-10T07:12:26;35.17;;;14.50;;
44110;SDS011;29774;52.664;5.074;2022-12-10T07:14:52;35.42;;;14.13;;
44110;SDS011;29774;52.664;5.074;2022-12-10T07:17:17;34.97;;;13.00;;
44110;SDS011;29774;52.664;5.074;2022-12-10T07:19:43;30.98;;;13.30;;
44110;SDS011;29774;52.664;5.074;2022-12-10T07:22:09;26.48;;;12.73;;
44110;SDS011;29774;52.664;5.074;2022-12-10T07:24:35;30.27;;;12.75;;
44110;SDS011;29774;52.664;5.074;2022-12-10T07:27:03;24.52;;;12.27;;
44110;SDS011;29774;52.664;5.074;2022-12-10T07:29:30;33.30;;;12.88;;
44110;SDS011;29774;52.664;5.074;2022-12-10T07:31:55;39.33;;;13.02;;
44110;SDS011;29774;52.664;5.074;2022-12-10T07:34:21;25.73;;;10.00;;
44110;SDS011;29774;52.664;5.074;2022-12-10T07:36:47;23.25;;;12.57;;
44110;SDS011;29774;52.664;5.074;2022-12-10T07:39:12;36.75;;;12.88;;
44110;SDS011;29774;52.664;5.074;2022-12-10T07:41:51;49.80;;;14.07;;
44110;SDS011;29774;52.664;5.074;2022-12-10T07:44:18;30.80;;;13.60;;
44110;SDS011;29774;52.664;5.074;2022-12-10T07:46:46;28.08;;;13.13;;
44110;SDS011;29774;52.664;5.074;2022-12-10T07:49:16;26.83;;;12.05;;
44110;SDS011;29774;52.664;5.074;2022-12-10T07:51:49;18.38;;;10.35;;
44110;SDS011;29774;52.664;5.074;2022-12-10T07:54:15;33.22;;;12.65;;
44110;SDS011;29774;52.664;5.074;2022-12-10T07:56:42;25.10;;;10.60;;
44110;SDS011;29774;52.664;5.074;2022-12-10T07:59:08;27.40;;;11.07;;
44110;SDS011;29774;52.664;5.074;2022-12-10T08:01:34;42.92;;;13.02;;
44110;SDS011;29774;52.664;5.074;2022-12-10T08:03:59;22.58;;;11.75;;
44110;SDS011;29774;52.664;5.074;2022-12-10T08:06:25;30.17;;;13.82;;
44110;SDS011;29774;52.664;5.074;2022-12-10T08:08:53;22.63;;;12.05;;
44110;SDS011;29774;52.664;5.074;2022-12-10T08:11:19;33.85;;;12.05;;
44110;SDS011;29774;52.664;5.074;2022-12-10T08:13:46;34.15;;;12.02;;
44110;SDS011;29774;52.664;5.074;2022-12-10T08:16:13;30.67;;;13.10;;
44110;SDS011;29774;52.664;5.074;2022-12-10T08:18:40;31.40;;;12.75;;
44110;SDS011;29774;52.664;5.074;2022-12-10T08:21:07;25.33;;;11.18;;
44110;SDS011;29774;52.664;5.074;2022-12-10T08:23:38;26.77;;;11.50;;
44110;SDS011;29774;52.664;5.074;2022-12-10T08:26:05;33.10;;;11.50;;
44110;SDS011;29774;52.664;5.074;2022-12-10T08:28:33;22.95;;;11.63;;
44110;SDS011;29774;52.664;5.074;2022-12-10T08:30:58;27.55;;;9.85;;
44110;SDS011;29774;52.664;5.074;2022-12-10T08:33:24;38.10;;;11.27;;
44110;SDS011;29774;52.664;5.074;2022-12-10T08:35:50;27.63;;;10.88;;
44110;SDS011;29774;52.664;5.074;2022-12-10T08:38:16;32.15;;;11.35;;
44110;SDS011;29774;52.664;5.074;2022-12-10T08:40:42;23.60;;;10.88;;
44110;SDS011;29774;52.664;5.074;2022-12-10T08:43:08;36.95;;;11.45;;
44110;SDS011;29774;52.664;5.074;2022-12-10T08:45:33;27.45;;;11.38;;
44110;SDS011;29774;52.664;5.074;2022-12-10T08:48:00;28.73;;;11.77;;
44110;SDS011;29774;52.664;5.074;2022-12-10T08:50:27;34.38;;;12.10;;
44110;SDS011;29774;52.664;5.074;2022-12-10T08:52:53;27.05;;;11.25;;
44110;SDS011;29774;52.664;5.074;2022-12-10T08:55:18;27.67;;;11.15;;
44110;SDS011;29774;52.664;5.074;2022-12-10T08:57:44;42.83;;;12.85;;
44110;SDS011;29774;52.664;5.074;2022-12-10T09:00:10;40.20;;;12.32;;
44110;SDS011;29774;52.664;5.074;2022-12-10T09:02:37;48.75;;;13.25;;
44110;SDS011;29774;52.664;5.074;2022-12-10T09:05:02;41.58;;;12.32;;
44110;SDS011;29774;52.664;5.074;2022-12-10T09:07:28;33.95;;;12.52;;
44110;SDS011;29774;52.664;5.074;2022-12-10T09:09:54;32.88;;;11.93;;
44110;SDS011;29774;52.664;5.074;2022-12-10T09:12:19;34.67;;;11.10;;
44110;SDS011;29774;52.664;5.074;2022-12-10T09:14:45;29.77;;;12.80;;
44110;SDS011;29774;52.664;5.074;2022-12-10T09:17:11;36.20;;;11.75;;
44110;SDS011;29774;52.664;5.074;2022-12-10T09:19:36;37.92;;;10.68;;
44110;SDS011;29774;52.664;5.074;2022-12-10T09:22:02;25.58;;;11.50;;
44110;SDS011;29774;52.664;5.074;2022-12-10T09:24:28;36.35;;;11.98;;
44110;SDS011;29774;52.664;5.074;2022-12-10T09:26:54;38.92;;;12.15;;
44110;SDS011;29774;52.664;5.074;2022-12-10T09:29:19;26.08;;;10.98;;
44110;SDS011;29774;52.664;5.074;2022-12-10T09:31:45;36.20;;;11.15;;
44110;SDS011;29774;52.664;5.074;2022-12-10T09:34:15;37.38;;;11.38;;
44110;SDS011;29774;52.664;5.074;2022-12-10T09:36:40;21.70;;;9.80;;
44110;SDS011;29774;52.664;5.074;2022-12-10T09:39:06;28.20;;;11.98;;
44110;SDS011;29774;52.664;5.074;2022-12-10T09:47:08;36.08;;;10.88;;
44110;SDS011;29774;52.664;5.074;2022-12-10T09:52:20;29.08;;;10.52;;
44110;SDS011;29774;52.664;5.074;2022-12-10T09:54:57;39.13;;;11.10;;
44110;SDS011;29774;52.664;5.074;2022-12-10T09:57:31;33.08;;;11.65;;
44110;SDS011;29774;52.664;5.074;2022-12-10T10:00:17;28.35;;;9.60;;
44110;SDS011;29774;52.664;5.074;2022-12-10T10:02:50;24.70;;;9.15;;
44110;SDS011;29774;52.664;5.074;2022-12-10T10:05:21;33.42;;;11.93;;
44110;SDS011;29774;52.664;5.074;2022-12-10T10:08:05;28.13;;;12.35;;
44110;SDS011;29774;52.664;5.074;2022-12-10T10:10:38;28.13;;;12.02;;
44110;SDS011;29774;52.664;5.074;2022-12-10T10:15:38;25.75;;;12.23;;
44110;SDS011;29774;52.664;5.074;2022-12-10T10:21:01;42.78;;;12.20;;
44110;SDS011;29774;52.664;5.074;2022-12-10T10:23:29;74.28;;;13.18;;
44110;SDS011;29774;52.664;5.074;2022-12-10T10:25:54;42.30;;;12.55;;
44110;SDS011;29774;52.664;5.074;2022-12-10T10:28:21;51.85;;;13.13;;
44110;SDS011;29774;52.664;5.074;2022-12-10T10:30:48;39.42;;;12.00;;
44110;SDS011;29774;52.664;5.074;2022-12-10T10:33:15;33.72;;;13.40;;
44110;SDS011;29774;52.664;5.074;2022-12-10T10:35:52;34.55;;;13.63;;
44110;SDS011;29774;52.664;5.074;2022-12-10T10:38:26;30.52;;;11.23;;
44110;SDS011;29774;52.664;5.074;2022-12-10T10:40:59;31.88;;;11.85;;
44110;SDS011;29774;52.664;5.074;2022-12-10T10:43:33;33.33;;;12.82;;
44110;SDS011;29774;52.664;5.074;2022-12-10T10:46:11;47.38;;;13.10;;
44110;SDS011;29774;52.664;5.074;2022-12-10T10:48:48;37.35;;;12.40;;
44110;SDS011;29774;52.664;5.074;2022-12-10T10:51:18;21.70;;;8.93;;
44110;SDS011;29774;52.664;5.074;2022-12-10T10:53:54;38.70;;;12.75;;
44110;SDS011;29774;52.664;5.074;2022-12-10T10:56:24;30.50;;;10.88;;
44110;SDS011;29774;52.664;5.074;2022-12-10T10:59:18;36.65;;;11.43;;
44110;SDS011;29774;52.664;5.074;2022-12-10T11:02:02;27.00;;;11.65;;
44110;SDS011;29774;52.664;5.074;2022-12-10T11:04:45;41.13;;;12.48;;
44110;SDS011;29774;52.664;5.074;2022-12-10T11:09:45;27.17;;;11.80;;
44110;SDS011;29774;52.664;5.074;2022-12-10T11:15:24;23.10;;;12.65;;
44110;SDS011;29774;52.664;5.074;2022-12-10T11:17:57;23.83;;;12.13;;
44110;SDS011;29774;52.664;5.074;2022-12-10T11:20:24;32.55;;;13.57;;
44110;SDS011;29774;52.664;5.074;2022-12-10T11:22:56;30.77;;;12.95;;
44110;SDS011;29774;52.664;5.074;2022-12-10T11:25:28;23.40;;;10.95;;
44110;SDS011;29774;52.664;5.074;2022-12-10T11:28:38;32.38;;;13.23;;
44110;SDS011;29774;52.664;5.074;2022-12-10T11:37:08;44.00;;;13.75;;
44110;SDS011;29774;52.664;5.074;2022-12-10T11:45:14;43.58;;;12.38;;
44110;SDS011;29774;52.664;5.074;2022-12-10T11:47:54;24.45;;;11.50;;
44110;SDS011;29774;52.664;5.074;2022-12-10T11:56:21;31.60;;;12.88;;
44110;SDS011;29774;52.664;5.074;2022-12-10T11:59:16;22.98;;;12.88;;
44110;SDS011;29774;52.664;5.074;2022-12-10T12:02:15;37.85;;;12.15;;
44110;SDS011;29774;52.664;5.074;2022-12-10T12:07:47;32.67;;;12.50;;
44110;SDS011;29774;52.664;5.074;2022-12-10T12:13:27;23.70;;;12.07;;
44110;SDS011;29774;52.664;5.074;2022-12-10T12:16:07;31.67;;;12.52;;
44110;SDS011;29774;52.664;5.074;2022-12-10T12:18:43;35.58;;;12.57;;
44110;SDS011;29774;52.664;5.074;2022-12-10T12:21:15;38.97;;;13.63;;
44110;SDS011;29774;52.664;5.074;2022-12-10T12:26:57;21.63;;;12.13;;
44110;SDS011;29774;52.664;5.074;2022-12-10T12:34:53;34.75;;;14.60;;
44110;SDS011;29774;52.664;5.074;2022-12-10T12:37:42;36.95;;;14.63;;
44110;SDS011;29774;52.664;5.074;2022-12-10T12:40:34;29.40;;;13.75;;
44110;SDS011;29774;52.664;5.074;2022-12-10T12:43:23;31.23;;;13.63;;
44110;SDS011;29774;52.664;5.074;2022-12-10T12:45:58;29.38;;;13.68;;
44110;SDS011;29774;52.664;5.074;2022-12-10T12:51:29;24.75;;;13.73;;
44110;SDS011;29774;52.664;5.074;2022-12-10T12:53:59;29.33;;;14.25;;
44110;SDS011;29774;52.664;5.074;2022-12-10T12:56:30;33.67;;;15.50;;
44110;SDS011;29774;52.664;5.074;2022-12-10T12:59:29;26.00;;;14.65;;
44110;SDS011;29774;52.664;5.074;2022-12-10T13:05:21;29.38;;;14.85;;
44110;SDS011;29774;52.664;5.074;2022-12-10T13:11:15;39.38;;;16.65;;
44110;SDS011;29774;52.664;5.074;2022-12-10T13:21:57;22.95;;;11.82;;
44110;SDS011;29774;52.664;5.074;2022-12-10T13:27:15;24.50;;;14.23;;
44110;SDS011;29774;52.664;5.074;2022-12-10T13:30:01;28.55;;;14.25;;
44110;SDS011;29774;52.664;5.074;2022-12-10T13:32:47;32.00;;;13.25;;
44110;SDS011;29774;52.664;5.074;2022-12-10T13:35:30;26.88;;;13.95;;
44110;SDS011;29774;52.664;5.074;2022-12-10T13:38:20;25.90;;;13.27;;
44110;SDS011;29774;52.664;5.074;2022-12-10T13:40:57;27.48;;;13.82;;
44110;SDS011;29774;52.664;5.074;2022-12-10T13:43:51;25.40;;;14.02;;
44110;SDS011;29774;52.664;5.074;2022-12-10T13:49:16;26.55;;;12.57;;
44110;SDS011;29774;52.664;5.074;2022-12-10T13:51:52;27.48;;;14.70;;
44110;SDS011;29774;52.664;5.074;2022-12-10T13:57:27;29.27;;;14.30;;
44110;SDS011;29774;52.664;5.074;2022-12-10T14:08:02;23.27;;;13.13;;
44110;SDS011;29774;52.664;5.074;2022-12-10T14:10:31;23.30;;;12.82;;
44110;SDS011;29774;52.664;5.074;2022-12-10T14:13:00;24.35;;;11.95;;
44110;SDS011;29774;52.664;5.074;2022-12-10T14:15:28;25.75;;;12.52;;
44110;SDS011;29774;52.664;5.074;2022-12-10T14:18:08;23.52;;;11.82;;
44110;SDS011;29774;52.664;5.074;2022-12-10T14:20:36;20.02;;;11.57;;
44110;SDS011;29774;52.664;5.074;2022-12-10T14:23:19;26.70;;;13.25;;
44110;SDS011;29774;52.664;5.074;2022-12-10T14:26:03;25.20;;;11.85;;
44110;SDS011;29774;52.664;5.074;2022-12-10T14:28:37;27.63;;;13.43;;
44110;SDS011;29774;52.664;5.074;2022-12-10T14:31:10;26.52;;;12.43;;
44110;SDS011;29774;52.664;5.074;2022-12-10T14:33:39;15.38;;;8.68;;
44110;SDS011;29774;52.664;5.074;2022-12-10T14:36:05;21.35;;;10.88;;
44110;SDS011;29774;52.664;5.074;2022-12-10T14:38:31;23.52;;;11.63;;
44110;SDS011;29774;52.664;5.074;2022-12-10T14:40:59;21.17;;;11.38;;
44110;SDS011;29774;52.664;5.074;2022-12-10T14:43:32;22.33;;;12.23;;
44110;SDS011;29774;52.664;5.074;2022-12-10T14:46:02;23.52;;;12.73;;
44110;SDS011;29774;52.664;5.074;2022-12-10T14:48:29;22.90;;;12.40;;
44110;SDS011;29774;52.664;5.074;2022-12-10T14:50:56;17.83;;;10.15;;
44110;SDS011;29774;52.664;5.074;2022-12-10T14:53:28;24.02;;;11.38;;
44110;SDS011;29774;52.664;5.074;2022-12-10T14:55:57;29.58;;;13.52;;
44110;SDS011;29774;52.664;5.074;2022-12-10T14:58:35;24.23;;;11.43;;
44110;SDS011;29774;52.664;5.074;2022-12-10T15:01:04;25.00;;;12.13;;
44110;SDS011;29774;52.664;5.074;2022-12-10T15:03:35;20.52;;;10.77;;
44110;SDS011;29774;52.664;5.074;2022-12-10T15:06:08;25.58;;;13.77;;
44110;SDS011;29774;52.664;5.074;2022-12-10T15:08:34;25.25;;;13.15;;
44110;SDS011;29774;52.664;5.074;2022-12-10T15:11:00;24.40;;;12.20;;
44110;SDS011;29774;52.664;5.074;2022-12-10T15:15:58;24.67;;;12.23;;
44110;SDS011;29774;52.664;5.074;2022-12-10T15:18:34;28.77;;;14.43;;
44110;SDS011;29774;52.664;5.074;2022-12-10T15:21:04;26.75;;;14.02;;
44110;SDS011;29774;52.664;5.074;2022-12-10T15:23:35;28.50;;;13.82;;
44110;SDS011;29774;52.664;5.074;2022-12-10T15:28:47;27.75;;;13.93;;
44110;SDS011;29774;52.664;5.074;2022-12-10T15:39:43;34.22;;;15.93;;
44110;SDS011;29774;52.664;5.074;2022-12-10T15:44:55;48.88;;;17.17;;
44110;SDS011;29774;52.664;5.074;2022-12-10T15:47:24;41.63;;;16.83;;
44110;SDS011;29774;52.664;5.074;2022-12-10T15:49:54;37.72;;;16.13;;
44110;SDS011;29774;52.664;5.074;2022-12-10T15:54:53;36.50;;;15.85;;
44110;SDS011;29774;52.664;5.074;2022-12-10T15:59:46;34.92;;;15.27;;
44110;SDS011;29774;52.664;5.074;2022-12-10T16:04:48;36.00;;;17.88;;
44110;SDS011;29774;52.664;5.074;2022-12-10T16:07:14;38.03;;;16.95;;
44110;SDS011;29774;52.664;5.074;2022-12-10T16:09:41;37.20;;;16.15;;
44110;SDS011;29774;52.664;5.074;2022-12-10T16:12:07;40.05;;;18.13;;
44110;SDS011;29774;52.664;5.074;2022-12-10T16:14:36;39.35;;;16.38;;
44110;SDS011;29774;52.664;5.074;2022-12-10T16:17:02;38.50;;;16.80;;
44110;SDS011;29774;52.664;5.074;2022-12-10T16:19:30;39.50;;;17.60;;
44110;SDS011;29774;52.664;5.074;2022-12-10T16:21:56;44.20;;;18.00;;
44110;SDS011;29774;52.664;5.074;2022-12-10T16:24:21;42.78;;;17.33;;
44110;SDS011;29774;52.664;5.074;2022-12-10T16:26:47;51.38;;;18.35;;
44110;SDS011;29774;52.664;5.074;2022-12-10T16:29:12;44.75;;;17.48;;
44110;SDS011;29774;52.664;5.074;2022-12-10T16:31:39;42.25;;;17.23;;
44110;SDS011;29774;52.664;5.074;2022-12-10T16:34:05;47.13;;;19.08;;
44110;SDS011;29774;52.664;5.074;2022-12-10T16:36:32;50.42;;;19.55;;
44110;SDS011;29774;52.664;5.074;2022-12-10T16:38:57;40.30;;;17.00;;
44110;SDS011;29774;52.664;5.074;2022-12-10T16:41:23;44.95;;;17.90;;